createdAt,value
2022-08-01T00:02:08.497Z,101636.66
2022-08-01T00:05:14.531Z,101634.88
2022-08-01T00:08:20.124Z,101631.00
2022-08-01T00:11:25.345Z,101632.94
2022-08-01T00:14:32.080Z,101635.31
2022-08-01T00:17:38.016Z,101627.97
2022-08-01T00:20:43.411Z,101630.94
2022-08-01T00:23:48.617Z,101633.66
2022-08-01T00:26:54.067Z,101637.53
2022-08-01T00:30:11.137Z,101641.47
2022-08-01T00:33:19.596Z,101642.78
2022-08-01T00:36:24.723Z,101648.75
2022-08-01T00:39:30.221Z,101644.56
2022-08-01T00:42:39.071Z,101639.38
2022-08-01T00:45:47.882Z,101640.19
2022-08-01T00:48:52.728Z,101645.06
2022-08-01T00:51:59.340Z,101646.53
2022-08-01T00:55:05.171Z,101645.63
2022-08-01T00:58:12.480Z,101649.28
2022-08-01T01:01:21.633Z,101652.59
2022-08-01T01:04:26.666Z,101647.75
2022-08-01T01:07:37.677Z,101649.44
2022-08-01T01:10:58.513Z,101651.97
2022-08-01T01:14:11.941Z,101644.34
2022-08-01T01:17:50.553Z,101646.09
2022-08-01T01:20:54.419Z,101637.59
2022-08-01T01:24:14.627Z,101639.28
2022-08-01T01:27:26.216Z,101634.84
2022-08-01T01:30:34.998Z,101632.09
2022-08-01T01:33:47.309Z,101630.50
2022-08-01T01:36:56.097Z,101632.06
2022-08-01T01:40:03.729Z,101627.91
2022-08-01T01:43:12.462Z,101634.94
2022-08-01T01:46:23.647Z,101639.75
2022-08-01T01:49:30.648Z,101645.47
2022-08-01T01:52:38.905Z,101644.41
2022-08-01T01:55:49.442Z,101646.63
2022-08-01T01:58:58.803Z,101644.38
2022-08-01T02:02:07.857Z,101646.06
2022-08-01T02:05:14.808Z,101639.75
2022-08-01T02:08:20.106Z,101640.81
2022-08-01T02:11:25.814Z,101648.69
2022-08-01T02:14:32.217Z,101652.38
2022-08-01T02:17:44.478Z,101654.50
2022-08-01T02:20:53.246Z,101649.06
2022-08-01T02:24:06.066Z,101653.34
2022-08-01T02:27:14.569Z,101655.88
2022-08-01T02:30:21.208Z,101642.44
2022-08-01T02:33:35.678Z,101652.88
2022-08-01T02:36:41.230Z,101654.69
2022-08-01T02:39:49.967Z,101657.38
2022-08-01T02:42:57.740Z,101658.00
2022-08-01T02:46:06.264Z,101661.66
2022-08-01T02:49:14.246Z,101658.97
2022-08-01T02:52:21.096Z,101651.28
2022-08-01T02:55:27.040Z,101642.44
2022-08-01T02:58:33.686Z,101643.41
2022-08-01T03:01:41.853Z,101641.41
2022-08-01T03:04:53.941Z,101640.63
2022-08-01T03:08:03.770Z,101640.06
2022-08-01T03:11:10.917Z,101645.25
2022-08-01T03:14:17.921Z,101647.75
2022-08-01T03:17:26.702Z,101653.69
2022-08-01T03:20:35.231Z,101659.75
2022-08-01T03:23:41.095Z,101651.88
2022-08-01T03:26:48.205Z,101658.91
2022-08-01T03:29:56.831Z,101660.59
2022-08-01T03:33:02.774Z,101651.97
2022-08-01T03:36:12.523Z,101657.63
2022-08-01T03:39:20.556Z,101658.31
2022-08-01T03:42:33.066Z,101658.53
2022-08-01T03:45:42.370Z,101657.81
2022-08-01T03:48:51.595Z,101661.22
2022-08-01T03:52:00.669Z,101649.00
2022-08-01T03:55:09.372Z,101654.16
2022-08-01T03:58:15.719Z,101659.69
2022-08-01T04:01:21.716Z,101668.84
2022-08-01T04:04:27.446Z,101666.22
2022-08-01T04:07:36.868Z,101663.88
2022-08-01T04:10:42.164Z,101658.59
2022-08-01T04:13:46.964Z,101658.41
2022-08-01T04:16:52.406Z,101665.47
2022-08-01T04:19:57.895Z,101665.09
2022-08-01T04:23:04.355Z,101671.56
2022-08-01T04:26:11.106Z,101682.03
2022-08-01T04:29:18.652Z,101675.06
2022-08-01T04:32:25.184Z,101675.84
2022-08-01T04:36:02.523Z,101677.03
2022-08-01T04:39:01.996Z,101680.53
2022-08-01T04:42:08.884Z,101679.91
2022-08-01T04:45:14.184Z,101677.72
2022-08-01T04:48:22.593Z,101683.63
2022-08-01T04:51:28.492Z,101689.81
2022-08-01T04:54:38.513Z,101688.38
2022-08-01T04:57:46.286Z,101694.09
2022-08-01T05:00:51.771Z,101699.34
2022-08-01T05:03:57.230Z,101699.69
2022-08-01T05:07:03.509Z,101690.44
2022-08-01T05:10:11.075Z,101692.81
2022-08-01T05:13:16.784Z,101701.75
2022-08-01T05:16:22.204Z,101698.31
2022-08-01T05:19:27.318Z,101700.53
2022-08-01T05:22:32.746Z,101700.91
2022-08-01T05:25:58.029Z,101702.34
2022-08-01T05:29:04.696Z,101694.03
2022-08-01T05:32:10.334Z,101693.16
2022-08-01T05:35:15.487Z,101697.59
2022-08-01T05:38:20.834Z,101700.00
2022-08-01T05:41:27.429Z,101698.81
2022-08-01T05:44:33.260Z,101696.66
2022-08-01T05:47:42.934Z,101709.88
2022-08-01T05:50:48.758Z,101717.84
2022-08-01T05:53:54.516Z,101713.97
2022-08-01T05:57:02.635Z,101718.44
2022-08-01T06:00:09.604Z,101720.72
2022-08-01T06:03:17.654Z,101732.84
2022-08-01T06:06:25.280Z,101726.03
2022-08-01T06:09:31.691Z,101734.59
2022-08-01T06:12:39.229Z,101735.91
2022-08-01T06:15:44.432Z,101744.69
2022-08-01T06:18:51.947Z,101738.59
2022-08-01T06:22:00.087Z,101740.25
2022-08-01T06:25:06.309Z,101740.25
2022-08-01T06:28:12.922Z,101741.38
2022-08-01T06:31:18.187Z,101744.03
2022-08-01T06:34:23.930Z,101740.34
2022-08-01T06:37:30.855Z,101750.94
2022-08-01T06:40:35.807Z,101755.94
2022-08-01T06:43:43.386Z,101745.88
2022-08-01T06:46:49.130Z,101757.16
2022-08-01T06:49:54.943Z,101747.00
2022-08-01T06:53:00.062Z,101754.53
2022-08-01T06:56:06.058Z,101762.16
2022-08-01T06:59:12.469Z,101759.25
2022-08-01T07:02:17.274Z,101756.78
2022-08-01T07:05:23.953Z,101754.25
2022-08-01T07:08:29.334Z,101750.38
2022-08-01T07:11:34.588Z,101754.19
2022-08-01T07:14:41.231Z,101757.03
2022-08-01T07:17:46.185Z,101760.63
2022-08-01T07:20:52.937Z,101764.13
2022-08-01T07:23:58.306Z,101763.81
2022-08-01T07:27:23.966Z,101772.06
2022-08-01T07:30:30.607Z,101768.25
2022-08-01T07:33:48.579Z,101769.50
2022-08-01T07:36:54.766Z,101781.97
2022-08-01T07:40:00.210Z,101789.22
2022-08-01T07:43:05.583Z,101788.50
2022-08-01T07:46:11.884Z,101791.25
2022-08-01T07:49:17.171Z,101794.47
2022-08-01T07:52:22.585Z,101801.41
2022-08-01T07:55:27.949Z,101805.72
2022-08-01T07:58:33.018Z,101794.69
2022-08-01T08:01:43.431Z,101809.09
2022-08-01T08:04:49.288Z,101802.34
2022-08-01T08:07:54.630Z,101813.53
2022-08-01T08:11:00.125Z,101803.34
2022-08-01T08:14:05.134Z,101801.97
2022-08-01T08:17:11.954Z,101802.94
2022-08-01T08:20:17.714Z,101812.88
2022-08-01T08:23:42.028Z,101814.88
2022-08-01T08:26:49.400Z,101806.94
2022-08-01T08:29:57.516Z,101805.88
2022-08-01T08:33:04.471Z,101808.94
2022-08-01T08:36:18.585Z,101816.06
2022-08-01T08:39:24.155Z,101805.94
2022-08-01T08:42:29.476Z,101812.44
2022-08-01T08:45:56.266Z,101817.06
2022-08-01T08:49:03.112Z,101825.09
2022-08-01T08:52:10.981Z,101826.63
2022-08-01T08:55:18.550Z,101826.97
2022-08-01T08:58:30.430Z,101814.34
2022-08-01T09:01:37.474Z,101822.34
2022-08-01T09:04:44.381Z,101817.47
2022-08-01T09:07:49.206Z,101815.00
2022-08-01T09:10:54.182Z,101814.63
2022-08-01T09:14:08.573Z,101823.81
2022-08-01T09:17:14.263Z,101829.69
2022-08-01T09:20:26.038Z,101835.41
2022-08-01T09:23:35.431Z,101834.56
2022-08-01T09:26:40.747Z,101842.25
2022-08-01T09:29:46.256Z,101837.19
2022-08-01T09:32:56.767Z,101845.91
2022-08-01T09:36:04.030Z,101846.94
2022-08-01T09:39:14.809Z,101844.50
2022-08-01T09:42:29.214Z,101844.66
2022-08-01T09:45:41.916Z,101838.75
2022-08-01T09:49:00.555Z,101843.22
2022-08-01T09:52:15.532Z,101852.03
2022-08-01T09:55:23.356Z,101849.41
2022-08-01T09:58:28.738Z,101853.59
2022-08-01T10:01:46.030Z,101862.66
2022-08-01T10:04:55.798Z,101851.78
2022-08-01T10:08:07.581Z,101863.50
2022-08-01T10:11:14.133Z,101866.72
2022-08-01T10:14:22.951Z,101863.56
2022-08-01T10:17:50.669Z,101853.16
2022-08-01T10:20:56.502Z,101849.97
2022-08-01T10:24:07.540Z,101854.50
2022-08-01T10:27:13.780Z,101855.34
2022-08-01T10:30:23.394Z,101850.47
2022-08-01T10:33:50.630Z,101854.84
2022-08-01T10:36:55.412Z,101854.69
2022-08-01T10:40:28.887Z,101850.94
2022-08-01T10:43:31.022Z,101849.41
2022-08-01T10:46:40.681Z,101848.84
2022-08-01T10:49:57.138Z,101848.56
2022-08-01T10:53:16.049Z,101847.00
2022-08-01T10:56:40.957Z,101856.63
2022-08-01T11:00:00.955Z,101854.63
2022-08-01T11:03:07.149Z,101853.31
2022-08-01T11:06:19.133Z,101852.25
2022-08-01T11:09:37.387Z,101853.22
2022-08-01T11:12:47.351Z,101863.66
2022-08-01T11:16:27.501Z,101861.94
2022-08-01T11:20:09.346Z,101863.97
2022-08-01T11:23:18.044Z,101870.56
2022-08-01T11:26:29.261Z,101868.00
2022-08-01T11:29:35.113Z,101874.00
2022-08-01T11:33:10.630Z,101873.47
2022-08-01T11:36:55.771Z,101876.50
2022-08-01T11:40:16.702Z,101870.63
2022-08-01T11:43:23.919Z,101874.41
2022-08-01T11:46:51.951Z,101872.50
2022-08-01T11:49:58.815Z,101874.13
2022-08-01T11:53:07.500Z,101879.41
2022-08-01T11:56:12.802Z,101872.66
2022-08-01T11:59:18.416Z,101872.22
2022-08-01T12:02:30.614Z,101870.09
2022-08-01T12:05:37.868Z,101873.75
2022-08-01T12:08:50.250Z,101872.94
2022-08-01T12:11:55.720Z,101876.44
2022-08-01T12:15:03.489Z,101879.50
2022-08-01T12:18:09.267Z,101881.41
2022-08-01T12:21:14.699Z,101876.91
2022-08-01T12:24:25.410Z,101885.53
2022-08-01T12:27:33.775Z,101887.22
2022-08-01T12:30:40.313Z,101885.34
2022-08-01T12:33:45.570Z,101882.66
2022-08-01T12:36:51.815Z,101882.44
2022-08-01T12:39:59.294Z,101878.81
2022-08-01T12:43:06.366Z,101887.03
2022-08-01T12:46:17.050Z,101878.53
2022-08-01T12:49:22.588Z,101876.22
2022-08-01T12:52:29.335Z,101874.16
2022-08-01T12:55:59.069Z,101877.63
2022-08-01T12:59:21.848Z,101870.41
2022-08-01T13:02:33.963Z,101872.13
2022-08-01T13:05:51.217Z,101865.16
2022-08-01T13:08:56.185Z,101873.50
2022-08-01T13:12:10.929Z,101865.56
2022-08-01T13:15:24.967Z,101869.69
2022-08-01T13:18:33.306Z,101871.31
2022-08-01T13:21:53.679Z,101865.78
2022-08-01T13:25:11.772Z,101861.69
2022-08-01T13:28:23.689Z,101864.44
2022-08-01T13:31:34.673Z,101862.22
2022-08-01T13:34:39.906Z,101865.59
2022-08-01T13:37:45.485Z,101853.53
2022-08-01T13:40:50.465Z,101850.47
2022-08-01T13:43:58.065Z,101856.75
2022-08-01T13:47:11.661Z,101850.91
2022-08-01T13:50:22.175Z,101843.06
2022-08-01T13:53:27.087Z,101845.03
2022-08-01T13:56:33.229Z,101841.13
2022-08-01T13:59:39.747Z,101850.88
2022-08-01T14:02:44.865Z,101839.81
2022-08-01T14:05:50.891Z,101841.00
2022-08-01T14:09:18.042Z,101841.03
2022-08-01T14:12:30.139Z,101832.50
2022-08-01T14:15:39.824Z,101834.19
2022-08-01T14:18:45.129Z,101850.50
2022-08-01T14:21:50.410Z,101822.56
2022-08-01T14:25:00.810Z,101835.22
2022-08-01T14:28:07.072Z,101830.28
2022-08-01T14:31:13.429Z,101826.81
2022-08-01T14:34:18.343Z,101834.84
2022-08-01T14:37:28.621Z,101835.81
2022-08-01T14:40:34.580Z,101824.78
2022-08-01T14:43:39.617Z,101841.81
2022-08-01T14:46:57.584Z,101829.56
2022-08-01T14:50:04.936Z,101832.88
2022-08-01T14:53:10.069Z,101841.84
2022-08-01T14:56:15.512Z,101830.69
2022-08-01T14:59:21.885Z,101851.84
2022-08-01T15:02:28.490Z,101830.94
2022-08-01T15:05:34.287Z,101836.41
2022-08-01T15:08:39.789Z,101828.75
2022-08-01T15:11:44.875Z,101830.13
2022-08-01T15:14:50.278Z,101833.78
2022-08-01T15:17:56.678Z,101837.06
2022-08-01T15:21:02.106Z,101843.22
2022-08-01T15:24:08.313Z,101846.22
2022-08-01T15:27:13.189Z,101853.41
2022-08-01T15:30:23.673Z,101859.34
2022-08-01T15:33:34.036Z,101863.81
2022-08-01T15:36:43.682Z,101849.25
2022-08-01T15:39:56.631Z,101853.25
2022-08-01T15:43:02.367Z,101854.47
2022-08-01T15:46:07.032Z,101846.97
2022-08-01T15:49:16.881Z,101850.47
2022-08-01T15:52:23.012Z,101849.84
2022-08-01T15:55:28.759Z,101852.00
2022-08-01T15:58:34.779Z,101849.13
2022-08-01T16:01:40.535Z,101840.28
2022-08-01T16:04:47.216Z,101842.88
2022-08-01T16:07:56.995Z,101842.84
2022-08-01T16:11:06.607Z,101843.09
2022-08-01T16:14:11.640Z,101841.28
2022-08-01T16:17:17.058Z,101842.94
2022-08-01T16:20:23.499Z,101841.69
2022-08-01T16:23:29.323Z,101832.66
2022-08-01T16:26:34.604Z,101835.72
2022-08-01T16:29:40.098Z,101842.38
2022-08-01T16:32:47.976Z,101854.19
2022-08-01T16:36:06.569Z,101838.69
2022-08-01T16:39:12.007Z,101834.97
2022-08-01T16:42:17.470Z,101827.88
2022-08-01T16:45:22.983Z,101826.22
2022-08-01T16:48:27.865Z,101833.19
2022-08-01T16:51:40.739Z,101826.16
2022-08-01T16:54:53.263Z,101829.22
2022-08-01T16:57:59.228Z,101827.59
2022-08-01T17:01:58.882Z,101831.31
2022-08-01T17:04:29.571Z,101834.88
2022-08-01T17:07:39.423Z,101834.66
2022-08-01T17:10:44.735Z,101829.97
2022-08-01T17:13:51.398Z,101832.56
2022-08-01T17:17:01.096Z,101835.69
2022-08-01T17:20:07.184Z,101839.53
2022-08-01T17:23:14.527Z,101842.06
2022-08-01T17:26:21.673Z,101849.91
2022-08-01T17:29:27.758Z,101840.63
2022-08-01T17:32:35.074Z,101839.72
2022-08-01T17:35:40.356Z,101837.84
2022-08-01T17:38:46.599Z,101837.66
2022-08-01T17:41:51.662Z,101840.75
2022-08-01T17:44:57.469Z,101835.88
2022-08-01T17:48:05.585Z,101829.31
2022-08-01T17:51:11.377Z,101834.84
2022-08-01T17:54:20.487Z,101838.03
2022-08-01T17:57:26.017Z,101844.53
2022-08-01T18:00:31.204Z,101843.19
2022-08-01T18:03:41.462Z,101839.00
2022-08-01T18:06:58.840Z,101839.13
2022-08-01T18:10:05.877Z,101847.75
2022-08-01T18:13:18.309Z,101853.22
2022-08-01T18:16:26.124Z,101847.44
2022-08-01T18:19:31.429Z,101849.25
2022-08-01T18:22:36.891Z,101852.59
2022-08-01T18:25:44.171Z,101850.22
2022-08-01T18:28:49.648Z,101855.66
2022-08-01T18:31:59.459Z,101855.81
2022-08-01T18:35:09.518Z,101854.91
2022-08-01T18:38:20.576Z,101852.81
2022-08-01T18:41:30.867Z,101854.16
2022-08-01T18:44:36.865Z,101852.16
2022-08-01T18:47:41.536Z,101855.19
2022-08-01T18:50:46.436Z,101849.31
2022-08-01T18:53:55.680Z,101852.59
2022-08-01T18:57:02.175Z,101848.91
2022-08-01T19:00:11.516Z,101857.66
2022-08-01T19:03:16.790Z,101860.69
2022-08-01T19:06:21.993Z,101860.13
2022-08-01T19:09:27.546Z,101862.78
2022-08-01T19:12:34.278Z,101864.13
2022-08-01T19:15:41.744Z,101866.34
2022-08-01T19:18:46.914Z,101872.31
2022-08-01T19:21:56.358Z,101875.13
2022-08-01T19:25:03.694Z,101881.31
2022-08-01T19:28:10.340Z,101882.84
2022-08-01T19:31:25.256Z,101896.38
2022-08-01T19:34:30.597Z,101896.63
2022-08-01T19:37:41.204Z,101900.69
2022-08-01T19:40:47.077Z,101897.09
2022-08-01T19:43:53.500Z,101905.31
2022-08-01T19:46:59.487Z,101895.22
2022-08-01T19:50:05.028Z,101903.88
2022-08-01T19:53:12.522Z,101906.63
2022-08-01T19:56:23.295Z,101901.78
2022-08-01T19:59:33.145Z,101898.19
2022-08-01T20:02:42.033Z,101901.56
2022-08-01T20:05:46.974Z,101898.81
2022-08-01T20:08:53.293Z,101897.31
2022-08-01T20:11:58.616Z,101897.50
2022-08-01T20:15:07.929Z,101907.16
2022-08-01T20:18:20.537Z,101904.63
2022-08-01T20:21:28.507Z,101902.88
2022-08-01T20:24:41.109Z,101903.06
2022-08-01T20:27:48.490Z,101902.84
2022-08-01T20:30:57.045Z,101900.91
2022-08-01T20:34:04.444Z,101903.00
2022-08-01T20:37:12.572Z,101903.63
2022-08-01T20:40:21.933Z,101910.97
2022-08-01T20:43:30.610Z,101908.63
2022-08-01T20:46:39.389Z,101899.50
2022-08-01T20:49:45.367Z,101901.16
2022-08-01T20:52:51.703Z,101909.78
2022-08-01T20:56:04.821Z,101908.44
2022-08-01T20:59:39.975Z,101899.09
2022-08-01T21:03:02.671Z,101888.41
2022-08-01T21:06:13.483Z,101897.38
2022-08-01T21:09:23.790Z,101896.31
2022-08-01T21:12:33.823Z,101900.00
2022-08-01T21:16:11.794Z,101902.72
2022-08-01T21:19:21.603Z,101908.97
2022-08-01T21:22:36.968Z,101907.44
2022-08-01T21:25:43.652Z,101902.75
2022-08-01T21:28:53.949Z,101904.13
2022-08-01T21:32:15.930Z,101901.97
2022-08-01T21:35:25.833Z,101896.06
2022-08-01T21:38:34.000Z,101891.38
2022-08-01T21:41:56.635Z,101889.22
2022-08-01T21:45:10.866Z,101887.31
2022-08-01T21:48:16.524Z,101879.63
2022-08-01T21:51:43.446Z,101882.94
2022-08-01T21:55:01.496Z,101883.13
2022-08-01T21:58:16.458Z,101880.97
2022-08-01T22:01:33.247Z,101882.78
2022-08-01T22:05:04.784Z,101881.25
2022-08-01T22:08:11.882Z,101892.38
2022-08-01T22:11:20.972Z,101892.56
2022-08-01T22:14:28.246Z,101893.13
2022-08-01T22:17:34.331Z,101888.44
2022-08-01T22:20:40.457Z,101888.19
2022-08-01T22:23:48.137Z,101882.06
2022-08-01T22:26:56.719Z,101877.28
2022-08-01T22:30:05.675Z,101878.69
2022-08-01T22:33:16.680Z,101876.56
2022-08-01T22:36:23.806Z,101874.00
2022-08-01T22:39:30.293Z,101881.72
2022-08-01T22:42:42.257Z,101885.66
2022-08-01T22:45:53.537Z,101891.91
2022-08-01T22:49:08.799Z,101885.84
2022-08-01T22:52:19.474Z,101883.13
2022-08-01T22:55:26.706Z,101883.72
2022-08-01T22:58:53.735Z,101886.22
2022-08-01T23:02:02.374Z,101883.91
2022-08-01T23:05:09.852Z,101871.56
2022-08-01T23:08:17.035Z,101869.22
2022-08-01T23:11:24.575Z,101860.28
2022-08-01T23:14:33.377Z,101860.28
2022-08-01T23:17:39.266Z,101868.75
2022-08-01T23:20:45.391Z,101873.59
2022-08-01T23:23:51.504Z,101855.56
2022-08-01T23:27:18.434Z,101861.22
2022-08-01T23:30:26.719Z,101857.47
2022-08-01T23:33:32.060Z,101855.56
2022-08-01T23:36:39.025Z,101855.66
2022-08-01T23:39:45.351Z,101860.00
2022-08-01T23:42:53.195Z,101860.13
2022-08-01T23:46:03.475Z,101854.28
2022-08-01T23:49:10.090Z,101855.13
2022-08-01T23:52:20.882Z,101851.00
2022-08-01T23:55:37.546Z,101851.09
2022-08-01T23:58:44.619Z,101861.16
